createdAt,value
2022-10-18T00:02:10.418Z,0.75
2022-10-18T00:04:40.154Z,1.08
2022-10-18T00:07:08.359Z,0.80
2022-10-18T00:09:36.570Z,1.13
2022-10-18T00:12:05.638Z,1.30
2022-10-18T00:14:33.937Z,1.20
2022-10-18T00:17:02.832Z,0.80
2022-10-18T00:19:31.285Z,1.05
2022-10-18T00:22:01.204Z,1.17
2022-10-18T00:24:29.679Z,1.05
2022-10-18T00:26:57.851Z,1.30
2022-10-18T00:29:26.168Z,1.75
2022-10-18T00:31:54.636Z,1.52
2022-10-18T00:34:23.138Z,1.35
2022-10-18T00:36:51.612Z,1.30
2022-10-18T00:39:23.027Z,1.17
2022-10-18T00:41:52.047Z,0.95
2022-10-18T00:44:57.648Z,1.42
2022-10-18T00:47:26.295Z,1.15
2022-10-18T00:49:59.411Z,1.15
2022-10-18T00:52:30.726Z,1.00
2022-10-18T00:55:00.975Z,1.30
2022-10-18T00:57:30.293Z,1.27
2022-10-18T00:59:58.801Z,1.30
2022-10-18T01:02:27.676Z,0.95
2022-10-18T01:04:56.061Z,1.08
2022-10-18T01:07:54.398Z,0.90
2022-10-18T01:10:32.388Z,1.17
2022-10-18T01:13:16.169Z,1.55
2022-10-18T01:15:53.123Z,1.15
2022-10-18T01:18:26.805Z,1.00
2022-10-18T01:21:12.611Z,1.55
2022-10-18T01:23:56.637Z,1.20
2022-10-18T01:26:42.046Z,1.10
2022-10-18T01:29:21.691Z,1.40
2022-10-18T01:31:59.647Z,1.58
2022-10-18T01:34:33.732Z,1.30
2022-10-18T01:37:07.535Z,0.85
2022-10-18T01:39:39.201Z,1.13
2022-10-18T01:42:12.550Z,1.25
2022-10-18T01:44:43.172Z,1.38
2022-10-18T01:47:15.160Z,1.00
2022-10-18T01:49:43.614Z,1.42
2022-10-18T01:52:14.437Z,1.10
2022-10-18T01:54:45.747Z,1.00
2022-10-18T01:57:20.234Z,0.85
2022-10-18T01:59:56.388Z,1.10
2022-10-18T02:02:39.092Z,1.13
2022-10-18T02:05:16.043Z,1.02
2022-10-18T02:08:00.102Z,1.33
2022-10-18T02:10:42.663Z,1.00
2022-10-18T02:13:14.107Z,0.90
2022-10-18T02:15:46.734Z,0.85
2022-10-18T02:18:20.229Z,0.85
2022-10-18T02:20:50.253Z,0.75
2022-10-18T02:23:24.394Z,1.00
2022-10-18T02:25:54.031Z,0.70
2022-10-18T02:30:59.422Z,1.70
2022-10-18T02:33:35.408Z,0.95
2022-10-18T02:36:08.627Z,1.20
2022-10-18T02:38:37.866Z,1.15
2022-10-18T02:41:06.326Z,0.85
2022-10-18T02:43:35.485Z,1.67
2022-10-18T02:46:04.470Z,0.93
2022-10-18T02:48:34.408Z,1.13
2022-10-18T02:51:02.649Z,1.60
2022-10-18T02:53:30.871Z,1.30
2022-10-18T02:55:59.098Z,1.00
2022-10-18T02:58:27.621Z,1.35
2022-10-18T03:00:56.117Z,1.35
2022-10-18T03:03:24.567Z,1.50
2022-10-18T03:05:54.693Z,1.02
2022-10-18T03:08:24.406Z,1.60
2022-10-18T03:10:53.397Z,1.02
2022-10-18T03:13:22.224Z,1.27
2022-10-18T03:15:50.684Z,1.40
2022-10-18T03:18:18.833Z,1.50
2022-10-18T03:20:47.298Z,1.48
2022-10-18T03:23:16.911Z,1.23
2022-10-18T03:25:46.503Z,1.30
2022-10-18T03:28:16.364Z,1.45
2022-10-18T03:30:44.949Z,1.08
2022-10-18T03:33:14.591Z,1.45
2022-10-18T03:35:43.107Z,1.63
2022-10-18T03:38:11.547Z,0.98
2022-10-18T03:40:41.488Z,1.20
2022-10-18T03:43:09.977Z,0.82
2022-10-18T03:45:38.216Z,1.08
2022-10-18T03:48:08.082Z,1.20
2022-10-18T03:50:36.605Z,1.30
2022-10-18T03:53:05.103Z,1.33
2022-10-18T03:55:33.368Z,1.02
2022-10-18T03:58:03.002Z,1.38
2022-10-18T04:00:31.598Z,1.23
2022-10-18T04:03:00.006Z,1.02
2022-10-18T04:05:30.821Z,1.10
2022-10-18T04:07:59.199Z,1.10
2022-10-18T04:10:27.417Z,0.80
2022-10-18T04:12:56.014Z,0.80
2022-10-18T04:15:25.633Z,0.85
2022-10-18T04:17:54.187Z,0.95
2022-10-18T04:20:22.357Z,0.80
2022-10-18T04:22:50.907Z,0.77
2022-10-18T04:25:19.624Z,1.17
2022-10-18T04:27:47.916Z,0.75
2022-10-18T04:30:16.554Z,1.30
2022-10-18T04:32:46.281Z,1.10
2022-10-18T04:35:14.799Z,0.90
2022-10-18T04:37:43.074Z,1.20
2022-10-18T04:40:12.468Z,1.50
2022-10-18T04:42:41.703Z,1.40
2022-10-18T04:45:10.686Z,1.50
2022-10-18T04:47:38.909Z,1.50
2022-10-18T04:50:09.644Z,1.33
2022-10-18T04:52:38.182Z,1.17
2022-10-18T04:55:07.112Z,1.33
2022-10-18T04:57:35.443Z,1.00
2022-10-18T05:00:03.823Z,0.90
2022-10-18T05:02:32.527Z,1.00
2022-10-18T05:05:01.427Z,1.35
2022-10-18T05:07:31.088Z,1.10
2022-10-18T05:09:59.566Z,1.10
2022-10-18T05:12:27.820Z,1.10
2022-10-18T05:14:56.825Z,1.10
2022-10-18T05:17:25.016Z,1.38
2022-10-18T05:19:53.960Z,1.00
2022-10-18T05:22:22.098Z,1.60
2022-10-18T05:24:52.235Z,2.13
2022-10-18T05:27:21.857Z,1.45
2022-10-18T05:29:50.167Z,1.00
2022-10-18T05:32:18.484Z,1.20
2022-10-18T05:34:46.563Z,1.35
2022-10-18T05:37:14.711Z,1.40
2022-10-18T05:39:42.932Z,1.35
2022-10-18T05:42:13.510Z,1.00
2022-10-18T05:44:41.738Z,1.10
2022-10-18T05:47:09.829Z,0.73
2022-10-18T05:49:38.129Z,0.98
2022-10-18T05:52:07.218Z,0.88
2022-10-18T05:54:35.301Z,0.90
2022-10-18T05:57:03.396Z,1.13
2022-10-18T05:59:32.827Z,1.35
2022-10-18T06:02:00.984Z,0.90
2022-10-18T06:04:29.131Z,1.00
2022-10-18T06:06:57.255Z,1.08
2022-10-18T06:09:26.064Z,1.65
2022-10-18T06:11:54.526Z,1.08
2022-10-18T06:14:22.580Z,0.80
2022-10-18T06:16:52.158Z,1.02
2022-10-18T06:19:21.419Z,1.38
2022-10-18T06:21:49.664Z,1.65
2022-10-18T06:24:18.556Z,1.25
2022-10-18T06:26:46.797Z,2.08
2022-10-18T06:29:15.535Z,1.70
2022-10-18T06:31:43.683Z,1.67
2022-10-18T06:34:13.377Z,1.42
2022-10-18T06:36:41.517Z,2.00
2022-10-18T06:39:09.998Z,2.85
2022-10-18T06:41:38.720Z,2.13
2022-10-18T06:44:20.154Z,1.92
2022-10-18T06:46:49.950Z,2.17
2022-10-18T06:49:19.610Z,2.13
2022-10-18T06:51:48.274Z,2.00
2022-10-18T06:54:18.753Z,2.15
2022-10-18T06:56:47.227Z,2.40
2022-10-18T06:59:18.229Z,2.75
2022-10-18T07:01:47.565Z,2.17
2022-10-18T07:04:15.868Z,2.22
2022-10-18T07:06:46.089Z,2.83
2022-10-18T07:09:14.442Z,2.63
2022-10-18T07:11:42.650Z,3.05
2022-10-18T07:14:15.382Z,2.67
2022-10-18T07:16:44.991Z,3.17
2022-10-18T07:19:16.361Z,2.67
2022-10-18T07:21:47.346Z,3.50
2022-10-18T07:24:15.827Z,3.00
2022-10-18T07:26:44.083Z,3.15
2022-10-18T07:29:14.458Z,2.80
2022-10-18T07:31:42.705Z,2.92
2022-10-18T07:34:13.900Z,2.35
2022-10-18T07:36:42.623Z,2.55
2022-10-18T07:39:12.546Z,2.20
2022-10-18T07:41:41.247Z,2.22
2022-10-18T07:44:09.922Z,2.42
2022-10-18T07:46:38.432Z,2.50
2022-10-18T07:49:07.199Z,2.88
2022-10-18T07:51:36.375Z,1.90
2022-10-18T07:54:05.082Z,2.38
2022-10-18T07:56:35.003Z,2.55
2022-10-18T07:59:03.416Z,2.28
2022-10-18T08:01:31.712Z,2.10
2022-10-18T08:04:06.178Z,2.28
2022-10-18T08:06:36.515Z,2.55
2022-10-18T08:09:05.516Z,2.33
2022-10-18T08:11:36.226Z,1.23
2022-10-18T08:14:05.177Z,2.10
2022-10-18T08:16:33.586Z,1.80
2022-10-18T08:19:02.034Z,2.22
2022-10-18T08:21:31.658Z,2.40
2022-10-18T08:24:00.232Z,1.73
2022-10-18T08:26:28.694Z,1.90
2022-10-18T08:29:17.781Z,1.67
2022-10-18T08:31:46.582Z,1.83
2022-10-18T08:34:24.628Z,2.22
2022-10-18T08:36:52.800Z,2.33
2022-10-18T08:39:21.726Z,1.92
2022-10-18T08:42:20.107Z,1.90
2022-10-18T08:44:51.936Z,2.20
2022-10-18T08:47:23.288Z,2.30
2022-10-18T08:49:55.413Z,2.30
2022-10-18T08:52:33.574Z,2.03
2022-10-18T08:55:04.769Z,3.10
2022-10-18T08:57:34.049Z,2.80
2022-10-18T09:00:16.368Z,3.40
2022-10-18T09:03:06.610Z,2.38
2022-10-18T09:05:46.443Z,3.38
2022-10-18T09:08:33.647Z,2.83
2022-10-18T09:11:19.387Z,3.25
2022-10-18T09:14:11.329Z,2.42
2022-10-18T09:16:51.533Z,2.33
2022-10-18T09:19:32.787Z,2.90
2022-10-18T09:22:09.882Z,3.38
2022-10-18T09:24:42.345Z,1.70
2022-10-18T09:27:17.614Z,1.80
2022-10-18T09:29:59.804Z,2.08
2022-10-18T09:32:43.912Z,2.70
2022-10-18T09:35:18.861Z,2.25
2022-10-18T09:37:49.084Z,3.25
2022-10-18T09:40:21.064Z,1.98
2022-10-18T09:42:56.034Z,2.10
2022-10-18T09:45:29.032Z,1.70
2022-10-18T09:48:06.985Z,3.00
2022-10-18T09:50:39.782Z,2.53
2022-10-18T09:53:17.073Z,2.25
2022-10-18T09:55:57.646Z,2.60
2022-10-18T09:58:30.907Z,2.43
2022-10-18T10:01:00.023Z,2.05
2022-10-18T10:03:29.853Z,1.75
2022-10-18T10:06:16.092Z,1.58
2022-10-18T10:08:49.809Z,1.92
2022-10-18T10:11:33.970Z,2.55
2022-10-18T10:16:48.787Z,1.98
2022-10-18T10:19:26.202Z,2.15
2022-10-18T10:22:01.689Z,2.95
2022-10-18T10:24:44.359Z,2.30
2022-10-18T10:27:19.405Z,1.80
2022-10-18T10:30:00.387Z,2.03
2022-10-18T10:32:32.903Z,1.90
2022-10-18T10:35:02.592Z,2.00
2022-10-18T10:37:35.770Z,2.20
2022-10-18T10:40:21.203Z,1.77
2022-10-18T10:43:19.659Z,2.13
2022-10-18T10:46:08.968Z,1.80
2022-10-18T10:48:46.884Z,1.90
2022-10-18T10:51:18.449Z,2.25
2022-10-18T10:53:52.785Z,1.73
2022-10-18T10:56:26.832Z,2.00
2022-10-18T10:58:59.274Z,2.00
2022-10-18T11:01:33.293Z,2.22
2022-10-18T11:04:04.726Z,2.35
2022-10-18T11:06:55.626Z,1.85
2022-10-18T11:09:51.491Z,1.60
2022-10-18T11:12:28.164Z,1.58
2022-10-18T11:15:05.796Z,1.80
2022-10-18T11:17:41.524Z,1.40
2022-10-18T11:20:24.470Z,1.50
2022-10-18T11:23:01.234Z,2.20
2022-10-18T11:25:42.198Z,1.67
2022-10-18T11:28:18.263Z,1.13
2022-10-18T11:30:59.561Z,1.27
2022-10-18T11:36:36.574Z,1.73
2022-10-18T11:39:15.076Z,1.80
2022-10-18T11:41:51.281Z,1.80
2022-10-18T11:44:29.419Z,1.05
2022-10-18T11:47:09.722Z,1.65
2022-10-18T11:49:52.019Z,1.73
2022-10-18T11:55:20.642Z,1.88
2022-10-18T11:57:59.015Z,1.17
2022-10-18T12:00:40.501Z,2.50
2022-10-18T12:03:21.332Z,2.07
2022-10-18T12:05:52.285Z,1.52
2022-10-18T12:08:24.672Z,2.08
2022-10-18T12:11:06.159Z,2.05
2022-10-18T12:13:40.432Z,1.42
2022-10-18T12:16:10.825Z,1.42
2022-10-18T12:21:25.481Z,0.85
2022-10-18T12:23:57.727Z,1.55
2022-10-18T12:26:29.369Z,1.10
2022-10-18T12:29:12.181Z,1.20
2022-10-18T12:31:44.744Z,1.52
2022-10-18T12:34:28.235Z,1.33
2022-10-18T12:37:34.178Z,1.30
2022-10-18T12:40:12.420Z,1.85
2022-10-18T12:42:46.567Z,1.52
2022-10-18T12:47:54.626Z,1.63
2022-10-18T12:50:31.780Z,1.35
2022-10-18T12:53:14.624Z,1.50
2022-10-18T12:55:45.087Z,1.40
2022-10-18T12:58:32.694Z,1.80
2022-10-18T13:01:08.133Z,1.60
2022-10-18T13:04:00.636Z,1.58
2022-10-18T13:07:08.046Z,1.58
2022-10-18T13:09:39.673Z,1.65
2022-10-18T13:12:46.227Z,1.70
2022-10-18T13:15:34.337Z,1.48
2022-10-18T13:18:15.785Z,2.10
2022-10-18T13:20:49.760Z,1.80
2022-10-18T13:23:37.804Z,1.70
2022-10-18T13:26:17.467Z,1.60
2022-10-18T13:28:53.639Z,1.40
2022-10-18T13:31:27.909Z,1.60
2022-10-18T13:33:56.197Z,1.75
2022-10-18T13:36:26.435Z,1.70
2022-10-18T13:39:07.317Z,1.88
2022-10-18T13:42:09.009Z,1.85
2022-10-18T13:44:40.438Z,1.50
2022-10-18T13:47:14.054Z,1.92
2022-10-18T13:50:18.086Z,1.73
2022-10-18T13:53:18.322Z,2.00
2022-10-18T13:55:59.908Z,2.22
2022-10-18T13:58:48.905Z,2.30
2022-10-18T14:01:32.611Z,1.73
2022-10-18T14:04:28.095Z,2.10
2022-10-18T14:07:02.303Z,2.13
2022-10-18T14:09:44.522Z,1.77
2022-10-18T14:12:23.080Z,1.63
2022-10-18T14:14:58.138Z,1.75
2022-10-18T14:17:36.644Z,1.75
2022-10-18T14:20:18.218Z,1.85
2022-10-18T14:22:50.965Z,2.05
2022-10-18T14:25:28.008Z,1.77
2022-10-18T14:28:14.158Z,2.00
2022-10-18T14:30:57.764Z,2.42
2022-10-18T14:33:35.349Z,1.88
2022-10-18T14:36:11.578Z,2.00
2022-10-18T14:38:52.953Z,2.55
2022-10-18T14:41:23.846Z,1.90
2022-10-18T14:43:53.070Z,2.10
2022-10-18T14:46:27.235Z,2.08
2022-10-18T14:49:00.423Z,2.35
2022-10-18T14:51:31.450Z,2.00
2022-10-18T14:53:59.820Z,2.35
2022-10-18T14:56:30.953Z,2.40
2022-10-18T14:59:03.715Z,1.90
2022-10-18T15:01:36.405Z,2.33
2022-10-18T15:04:09.539Z,1.90
2022-10-18T15:06:37.941Z,1.88
2022-10-18T15:09:07.937Z,1.73
2022-10-18T15:11:36.386Z,2.20
2022-10-18T15:14:08.703Z,1.95
2022-10-18T15:16:39.535Z,2.10
2022-10-18T15:19:29.250Z,2.28
2022-10-18T15:25:16.786Z,1.80
2022-10-18T15:27:47.637Z,1.80
2022-10-18T15:30:20.892Z,2.17
2022-10-18T15:32:52.465Z,2.00
2022-10-18T15:35:26.497Z,2.47
2022-10-18T15:37:56.221Z,2.00
2022-10-18T15:40:34.482Z,2.13
2022-10-18T15:43:05.912Z,1.95
2022-10-18T15:45:37.643Z,2.22
2022-10-18T15:48:23.569Z,1.90
2022-10-18T15:50:54.595Z,2.50
2022-10-18T15:53:34.135Z,1.70
2022-10-18T15:56:06.499Z,2.08
2022-10-18T15:58:44.116Z,2.63
2022-10-18T16:01:17.764Z,2.75
2022-10-18T16:03:47.979Z,2.30
2022-10-18T16:06:19.016Z,2.20
2022-10-18T16:08:49.664Z,2.58
2022-10-18T16:11:19.634Z,2.50
2022-10-18T16:13:49.305Z,2.22
2022-10-18T16:16:20.122Z,2.20
2022-10-18T16:18:48.465Z,3.10
2022-10-18T16:21:23.681Z,2.08
2022-10-18T16:23:52.639Z,2.13
2022-10-18T16:26:22.379Z,2.45
2022-10-18T16:28:51.275Z,2.15
2022-10-18T16:31:21.850Z,2.35
2022-10-18T16:33:52.568Z,2.08
2022-10-18T16:36:24.077Z,2.80
2022-10-18T16:38:54.972Z,2.03
2022-10-18T16:41:23.946Z,1.80
2022-10-18T16:43:52.536Z,2.28
2022-10-18T16:46:22.763Z,2.30
2022-10-18T16:48:52.476Z,2.42
2022-10-18T16:51:23.121Z,2.72
2022-10-18T16:53:53.349Z,2.90
2022-10-18T16:56:23.731Z,2.13
2022-10-18T16:58:52.552Z,2.85
2022-10-18T17:01:24.959Z,2.30
2022-10-18T17:03:55.488Z,2.90
2022-10-18T17:06:27.559Z,2.88
2022-10-18T17:08:56.450Z,2.65
2022-10-18T17:11:26.814Z,2.92
2022-10-18T17:13:55.801Z,2.92
2022-10-18T17:18:59.448Z,2.55
2022-10-18T17:21:30.732Z,2.92
2022-10-18T17:24:01.068Z,2.97
2022-10-18T17:26:30.304Z,2.60
2022-10-18T17:29:01.120Z,3.10
2022-10-18T17:31:30.103Z,2.85
2022-10-18T17:34:01.661Z,2.83
2022-10-18T17:36:33.928Z,2.40
2022-10-18T17:39:02.619Z,3.90
2022-10-18T17:41:30.995Z,2.50
2022-10-18T17:43:59.239Z,2.80
2022-10-18T17:46:27.438Z,2.90
2022-10-18T17:48:55.550Z,2.60
2022-10-18T17:51:24.339Z,3.00
2022-10-18T17:53:55.098Z,3.33
2022-10-18T17:56:23.227Z,3.30
2022-10-18T17:58:52.122Z,3.22
2022-10-18T18:01:23.046Z,2.83
2022-10-18T18:03:52.270Z,3.53
2022-10-18T18:06:23.546Z,3.22
2022-10-18T18:08:53.338Z,2.93
2022-10-18T18:11:21.828Z,3.33
2022-10-18T18:13:49.939Z,3.70
2022-10-18T18:16:20.545Z,32.67
2022-10-18T18:18:51.605Z,2.90
2022-10-18T18:21:20.607Z,3.35
2022-10-18T18:23:49.661Z,2.78
2022-10-18T18:26:20.597Z,3.05
2022-10-18T18:28:49.486Z,3.75
2022-10-18T18:31:19.534Z,3.42
2022-10-18T18:33:47.841Z,2.97
2022-10-18T18:36:18.054Z,3.00
2022-10-18T18:38:46.355Z,3.17
2022-10-18T18:41:16.396Z,3.30
2022-10-18T18:43:50.525Z,3.17
2022-10-18T18:46:19.330Z,3.25
2022-10-18T18:48:47.886Z,3.90
2022-10-18T18:51:18.091Z,3.90
2022-10-18T18:53:47.757Z,3.20
2022-10-18T18:56:18.392Z,2.92
2022-10-18T18:58:48.752Z,3.50
2022-10-18T19:01:19.552Z,3.72
2022-10-18T19:03:49.991Z,3.90
2022-10-18T19:06:20.443Z,3.10
2022-10-18T19:08:49.629Z,3.50
2022-10-18T19:11:20.798Z,4.13
2022-10-18T19:13:51.549Z,4.30
2022-10-18T19:16:23.086Z,4.18
2022-10-18T19:18:53.190Z,3.28
2022-10-18T19:21:22.482Z,4.25
2022-10-18T19:23:51.313Z,3.67
2022-10-18T19:26:30.043Z,2.92
2022-10-18T19:29:07.388Z,3.60
2022-10-18T19:31:37.144Z,4.00
2022-10-18T19:34:07.660Z,4.57
2022-10-18T19:36:36.695Z,4.90
2022-10-18T19:39:06.123Z,4.80
2022-10-18T19:41:34.479Z,4.78
2022-10-18T19:44:04.264Z,4.97
2022-10-18T19:46:32.998Z,3.80
2022-10-18T19:49:01.539Z,4.13
2022-10-18T19:51:29.927Z,4.53
2022-10-18T19:53:58.664Z,4.07
2022-10-18T19:56:29.012Z,4.20
2022-10-18T19:58:58.318Z,3.80
2022-10-18T20:01:29.372Z,3.88
2022-10-18T20:03:57.707Z,5.47
2022-10-18T20:06:25.829Z,4.93
2022-10-18T20:08:54.652Z,5.47
2022-10-18T20:11:24.852Z,4.70
2022-10-18T20:13:54.029Z,10.35
2022-10-18T20:16:28.188Z,5.13
2022-10-18T20:19:00.427Z,4.03
2022-10-18T20:21:30.662Z,4.05
2022-10-18T20:23:59.505Z,3.70
2022-10-18T20:26:27.710Z,4.68
2022-10-18T20:28:58.233Z,4.40
2022-10-18T20:31:28.847Z,4.40
2022-10-18T20:34:00.436Z,5.20
2022-10-18T20:36:30.147Z,4.25
2022-10-18T20:38:58.714Z,4.57
2022-10-18T20:41:28.801Z,4.88
2022-10-18T20:43:59.896Z,5.15
2022-10-18T20:46:30.561Z,5.50
2022-10-18T20:49:00.615Z,6.78
2022-10-18T20:51:28.993Z,6.05
2022-10-18T20:53:57.904Z,4.32
2022-10-18T20:56:27.564Z,5.35
2022-10-18T20:58:58.147Z,5.25
2022-10-18T21:01:28.922Z,5.65
2022-10-18T21:04:01.487Z,4.88
2022-10-18T21:06:30.959Z,5.35
2022-10-18T21:09:01.178Z,6.30
2022-10-18T21:11:31.295Z,5.45
2022-10-18T21:14:02.721Z,6.03
2022-10-18T21:16:31.599Z,6.40
2022-10-18T21:19:04.510Z,5.45
2022-10-18T21:21:33.338Z,5.45
2022-10-18T21:24:05.314Z,5.35
2022-10-18T21:26:38.490Z,5.35
2022-10-18T21:29:07.350Z,6.07
2022-10-18T21:31:39.222Z,5.07
2022-10-18T21:34:13.269Z,6.40
2022-10-18T21:36:42.562Z,5.30
2022-10-18T21:39:14.864Z,5.78
2022-10-18T21:41:43.529Z,5.93
2022-10-18T21:44:12.141Z,5.35
2022-10-18T21:46:43.033Z,6.32
2022-10-18T21:49:12.691Z,6.65
2022-10-18T21:51:41.527Z,5.90
2022-10-18T21:54:14.045Z,5.75
2022-10-18T21:56:42.499Z,6.57
2022-10-18T21:59:12.895Z,5.40
2022-10-18T22:01:43.691Z,5.20
2022-10-18T22:04:21.471Z,4.05
2022-10-18T22:06:49.772Z,5.72
2022-10-18T22:09:18.263Z,5.85
2022-10-18T22:11:49.636Z,5.20
2022-10-18T22:14:18.029Z,5.43
2022-10-18T22:16:46.484Z,5.32
2022-10-18T22:19:15.191Z,5.15
2022-10-18T22:21:45.273Z,5.82
2022-10-18T22:24:13.758Z,6.13
2022-10-18T22:26:43.641Z,5.20
2022-10-18T22:29:15.266Z,5.85
2022-10-18T22:31:45.587Z,5.85
2022-10-18T22:34:17.139Z,5.88
2022-10-18T22:36:47.318Z,5.78
2022-10-18T22:39:16.898Z,5.80
2022-10-18T22:41:45.517Z,5.70
2022-10-18T22:44:15.176Z,6.35
2022-10-18T22:46:43.811Z,6.57
2022-10-18T22:49:12.676Z,5.97
2022-10-18T22:51:41.042Z,5.40
2022-10-18T22:54:11.037Z,8.88
2022-10-18T22:56:40.275Z,14.38
2022-10-18T22:59:09.137Z,6.00
2022-10-18T23:01:37.934Z,5.35
2022-10-18T23:04:06.402Z,6.55
2022-10-18T23:06:36.680Z,6.22
2022-10-18T23:09:07.566Z,5.70
2022-10-18T23:11:38.447Z,6.85
2022-10-18T23:14:08.507Z,6.65
2022-10-18T23:16:37.816Z,5.82
2022-10-18T23:19:06.397Z,6.47
2022-10-18T23:21:35.531Z,5.82
2022-10-18T23:24:04.020Z,6.45
2022-10-18T23:26:32.579Z,6.15
2022-10-18T23:29:02.883Z,6.47
2022-10-18T23:31:33.337Z,5.53
2022-10-18T23:34:03.584Z,6.30
2022-10-18T23:36:33.737Z,6.72
2022-10-18T23:39:02.130Z,6.35
2022-10-18T23:41:30.535Z,6.05
2022-10-18T23:43:59.267Z,6.05
2022-10-18T23:46:28.946Z,6.00
2022-10-18T23:48:57.172Z,6.15
2022-10-18T23:51:25.613Z,5.80
2022-10-18T23:53:53.874Z,5.50
2022-10-18T23:56:22.241Z,7.22
2022-10-18T23:58:50.577Z,6.28
